ADDS METAR Data INFO
IDs: Format: Raw Decoded Include TAF

Data at: 1811 UTC 18 Feb 2018

KGYB 181755Z AUTO 00000KT 2 1/2SM BR OVC001 13/13 A3012 RMK AO2 T01270126 10130 20093
KGYB 181735Z AUTO 00000KT 2SM BR OVC001 13/13 A3014 RMK AO2 T01280127
KGYB 181715Z AUTO 00000KT 2SM BR OVC001 13/13 A3014 RMK AO2 T01270126
KGYB 181655Z AUTO 12003KT 1/2SM FG OVC001 12/12 A3014 RMK AO2 T01220121
KGYB 181635Z AUTO 08003KT 1/4SM FG OVC001 12/12 A3014 RMK AO2 T01180117
KGYB 181615Z AUTO 00000KT 1/2SM FG OVC001 11/11 A3015 RMK AO2 T01120111
KGYB 181555Z AUTO 00000KT 1/2SM FG OVC001 11/11 A3015 RMK AO2 T01100109
KGYB 181535Z AUTO 00000KT 1/2SM FG OVC001 11/11 A3014 RMK AO2 T01070106
KGYB 181515Z AUTO 00000KT 1/2SM FG OVC001 11/11 A3014 RMK AO2 T01050105
KGYB 181455Z AUTO 00000KT 3/4SM BR OVC001 10/10 A3013 RMK AO2 T01020101
KGYB 181435Z AUTO 00000KT 3/4SM BR OVC001 10/10 A3013 RMK AO2 T01000099
KGYB 181415Z AUTO 00000KT 1 1/4SM BR OVC001 10/10 A3012 RMK AO2 T00970096
KGYB 181355Z AUTO 00000KT 1/2SM FG OVC001 10/10 A3012 RMK AO2 T00950095
KGYB 181335Z AUTO 08003KT 1/2SM FG OVC001 10/09 A3012 RMK AO2 T00950093
KGYB 181315Z AUTO 08003KT 3/4SM BR OVC003 10/09 A3011 RMK AO2 T00950093
KGYB 181255Z AUTO 07004KT 2SM BR OVC003 10/09 A3012 RMK AO2 T00950093
KGYB 181235Z AUTO 00000KT 3SM BR OVC003 09/09 A3012 RMK AO2 T00930092
KGYB 181215Z AUTO 07004KT 3SM BR OVC003 09/09 A3012 RMK AO2 T00940092
KGYB 181155Z AUTO 00000KT 4SM BR OVC003 09/09 A3012 RMK AO2 P0001 60001 70001 T00930092 10105 20093
KGYB 181135Z AUTO 06003KT 3SM BR OVC003 09/09 A3012 RMK AO2 P0001 T00940092
KGYB 181115Z AUTO 00000KT 2 1/2SM BR OVC003 09/09 A3012 RMK AO2 P0001 T00940093
KGYB 181055Z AUTO 05003KT 2SM -DZ OVC003 09/09 A3012 RMK AO2 T00940093
KGYB 181035Z AUTO 06003KT 1 1/2SM BR OVC003 10/09 A3012 RMK AO2 T00950092
KGYB 181015Z AUTO 06004KT 2SM BR OVC003 10/09 A3012 RMK AO2 T00950092
KGYB 180955Z AUTO 05003KT 2 1/2SM BR OVC003 10/09 A3012 RMK AO2 T00950092
KGYB 180935Z AUTO 06005KT 4SM BR OVC003 10/09 A3012 RMK AO2 T00950092
KGYB 180915Z AUTO 05004KT 3SM BR OVC003 10/09 A3013 RMK AO2 T00950093
KGYB 180855Z AUTO 04003KT 3SM BR OVC003 10/09 A3013 RMK AO2 T00950093
KGYB 180835Z AUTO 04004KT 2 1/2SM -DZ OVC003 10/09 A3013 RMK AO2 T00950093
KGYB 180815Z AUTO 04005KT 2SM RA OVC003 10/09 A3014 RMK AO2 T00950094
KGYB 180755Z AUTO 03004KT 2SM BR OVC003 10/10 A3014 RMK AO2 T00970095
KGYB 180735Z AUTO 03003KT 2SM BR OVC005 10/10 A3015 RMK AO2 T00970095
KGYB 180715Z AUTO 04004KT 2SM BR BKN005 OVC010 10/10 A3015 RMK AO2 T00980095
KGYB 180655Z AUTO 05005KT 2 1/2SM BR SCT005 OVC012 10/10 A3015 RMK AO2 T01010096
KGYB 180635Z AUTO 05003KT 4SM -DZ OVC014 10/10 A3015 RMK AO2 T01030096
KGYB 180615Z AUTO 04004KT 5SM +RA OVC014 11/10 A3015 RMK AO2 T01050096
KGYB 180555Z AUTO 03004KT 5SM BR OVC014 11/10 A3015 RMK AO2 T01050097 10125 20103 401580094
KGYB 180535Z AUTO 05004KT 5SM BR OVC014 11/10 A3016 RMK AO2 T01050097
KGYB 180515Z AUTO 05004KT 5SM BR OVC014 11/10 A3016 RMK AO2 T01050097
KGYB 180455Z AUTO 03003KT 5SM BR OVC014 10/10 A3016 RMK AO2 T01040097
KGYB 180435Z AUTO 05004KT 5SM BR OVC014 10/10 A3016 RMK AO2 T01040098
KGYB 180415Z AUTO 03005KT 5SM BR SCT014 OVC022 10/10 A3016 RMK AO2 T01030098
KGYB 180355Z AUTO 04003KT 5SM BR SCT003 BKN016 OVC022 10/10 A3017 RMK AO2 T01030098
KGYB 180335Z AUTO 00000KT 5SM BR SCT003 OVC016 10/10 A3017 RMK AO2 T01030100
KGYB 180315Z AUTO 03004KT 5SM BR BKN003 OVC016 10/10 A3017 RMK AO2 T01030100
KGYB 180255Z AUTO 04003KT 5SM BR BKN003 OVC016 11/10 A3017 RMK AO2 T01050101
KGYB 180235Z AUTO 03005KT 7SM SCT003 OVC016 11/10 A3017 RMK AO2 T01050101
KGYB 180215Z AUTO 05003KT 5SM BR BKN003 BKN007 OVC016 11/10 A3017 RMK AO2 T01050101
KGYB 180155Z AUTO 05004KT 4SM BR BKN003 OVC007 11/10 A3017 RMK AO2 T01060102
KGYB 180135Z AUTO 05003KT 4SM -DZ BKN003 BKN007 OVC013 11/10 A3016 RMK AO2 T01070104
KGYB 180115Z AUTO 03003KT 3SM DZ SCT003 OVC011 11/11 A3015 RMK AO2 T01100105
KGYB 180055Z AUTO 05004KT 4SM -RA BKN007 OVC011 11/11 A3015 RMK AO2 T01120105
KGYB 180035Z AUTO 04003KT 4SM -DZ SCT007 SCT011 OVC021 12/11 A3015 RMK AO2 T01150106
KGYB 180015Z AUTO 08003KT 3SM DZ OVC019 12/11 A3014 RMK AO2 T01190105
KGYB 172355Z AUTO 08005KT 7SM SCT009 SCT013 OVC019 13/10 A3014 RMK AO2 T01250096 10158 20118
KGYB 172335Z AUTO 06004KT 5SM HZ OVC017 13/09 A3014 RMK AO2 T01310093
KGYB 172315Z AUTO 08004KT 10SM OVC017 13/09 A3013 RMK AO2 T01330086
KGYB 172255Z AUTO 03007KT 10SM OVC017 13/09 A3013 RMK AO2 T01330085
KGYB 172235Z AUTO 04005KT 10SM OVC017 14/09 A3013 RMK AO2 T01350086
KGYB 172215Z AUTO 03008KT 10SM OVC017 14/09 A3013 RMK AO2 T01370089
KGYB 172155Z AUTO 01009KT 10SM OVC019 14/09 A3012 RMK AO2 T01400087
KGYB 172135Z AUTO 01009G15KT 10SM OVC019 15/09 A3012 RMK AO2 T01500093
KGYB 172115Z AUTO 01008KT 10SM OVC017 16/10 A3011 RMK AO2 T01550095
KGYB 172055Z AUTO 36006KT 10SM OVC017 16/10 A3010 RMK AO2 T01550097
KGYB 172035Z AUTO 02003KT 10SM OVC017 15/10 A3011 RMK AO2 T01530095
KGYB 172015Z AUTO 35006KT 10SM OVC015 16/10 A3011 RMK AO2 T01550100
KGYB 171955Z AUTO 36004KT 10SM BKN015 OVC021 16/10 A3010 RMK AO2 T01570101
KGYB 171935Z AUTO 03003KT 10SM OVC015 16/10 A3011 RMK AO2 T01550100
KGYB 171915Z AUTO 01003KT 10SM SCT015 BKN080 15/10 A3011 RMK AO2 T01530097
KGYB 171855Z AUTO 00000KT 10SM BKN080 15/10 A3012 RMK AO2 T01450095
KGYB 171835Z AUTO 00000KT 10SM BKN080 14/09 A3012 RMK AO2 T01420090
KGYB 171815Z AUTO 17007KT 10SM CLR 14/09 A3011 RMK AO2 T01370088
KGYB 171755Z AUTO 14006KT 7SM SCT046 SCT080 11/08 A3013 RMK AO2 T01140078 10131 20094
KGYB 171735Z AUTO 13007KT 7SM BKN014 BKN033 BKN046 10/07 A3014 RMK AO2 T01010071
KGYB 171715Z AUTO 04007KT 7SM OVC014 10/07 A3017 RMK AO2 T00960070
KGYB 171655Z AUTO 36009KT 7SM OVC014 10/07 A3018 RMK AO2 T00950067
KGYB 171635Z AUTO 01009KT 10SM OVC014 10/07 A3018 RMK AO2 T00950066
KGYB 171615Z AUTO 01006KT 7SM -DZ OVC014 10/07 A3017 RMK AO2 T00950070
KGYB 171555Z AUTO 36006KT 5SM DZ OVC014 10/07 A3017 RMK AO2 T00980067
KGYB 171535Z AUTO 02009KT 10SM OVC014 11/06 A3016 RMK AO2 T01100062
KGYB 171515Z AUTO 01008KT 10SM OVC012 12/06 A3015 RMK AO2 T01170062
KGYB 171455Z AUTO 36008KT 10SM OVC012 12/06 A3015 RMK AO2 T01150060
KGYB 171435Z AUTO 35008KT 10SM OVC014 12/06 A3014 RMK AO2 T01180061
KGYB 171415Z AUTO 36006KT 10SM OVC014 12/06 A3012 RMK AO2 T01200063
KGYB 171355Z AUTO 36008KT 330V030 10SM OVC014 12/07 A3011 RMK AO2 T01220067
KGYB 171335Z AUTO 35007KT 10SM OVC014 12/07 A3011 RMK AO2 T01210066
KGYB 171315Z AUTO 36006KT 10SM OVC014 12/07 A3010 RMK AO2 T01230067
KGYB 171255Z AUTO 36007KT 10SM OVC014 13/07 A3009 RMK AO2 T01250069
KGYB 171235Z AUTO 36006KT 10SM OVC014 13/07 A3009 RMK AO2 T01270070
KGYB 171215Z AUTO 34006KT 10SM OVC014 13/07 A3009 RMK AO2 T01300070
KGYB 171155Z AUTO 35006KT 10SM OVC012 13/07 A3008 RMK AO2 T01300072 10140 20130
KGYB 171135Z AUTO 35005KT 10SM OVC012 13/07 A3007 RMK AO2 T01310074
KGYB 171115Z AUTO 35003KT 10SM OVC012 13/07 A3006 RMK AO2 T01310073
KGYB 171055Z AUTO 00000KT 10SM -RA OVC012 13/07 A3005 RMK AO2 T01320072
KGYB 171035Z AUTO 35004KT 10SM OVC012 13/07 A3004 RMK AO2 T01320070
KGYB 171015Z AUTO 00000KT 10SM OVC012 13/07 A3004 RMK AO2 T01330071
KGYB 170955Z AUTO 00000KT 10SM OVC014 13/07 A3003 RMK AO2 T01330070
KGYB 170935Z AUTO 00000KT 10SM OVC016 13/07 A3003 RMK AO2 T01320069
KGYB 170915Z AUTO 10003KT 10SM OVC016 13/07 A3003 RMK AO2 T01310068
KGYB 170855Z AUTO 10004KT 10SM OVC018 13/07 A3004 RMK AO2 T01320071
KGYB 170835Z AUTO 07003KT 10SM BKN018 OVC034 13/07 A3005 RMK AO2 T01320070
KGYB 170815Z AUTO 05003KT 10SM OVC018 13/07 A3006 RMK AO2 T01320070
KGYB 170755Z AUTO 06003KT 10SM OVC018 13/07 A3007 RMK AO2 T01320070
KGYB 170735Z AUTO 04003KT 10SM BKN022 BKN031 OVC037 13/07 A3008 RMK AO2 T01300070
KGYB 170715Z AUTO 00000KT 10SM SCT022 BKN035 BKN050 13/07 A3010 RMK AO2 T01310071
KGYB 170655Z AUTO 06003KT 10SM BKN050 13/07 A3009 RMK AO2 T01320070
KGYB 170635Z AUTO 08004KT 10SM OVC050 14/07 A3009 RMK AO2 T01360072
KGYB 170615Z AUTO 00000KT 10SM OVC050 14/07 A3011 RMK AO2 T01370071